| Date | Time | Temp. (oF) | Dew Point (oF) | Rel. Hum. (%) | Press. (in.) | Wind Dir. | Wind Speed (mph) | Hourly Rainfall (in.) |
|
|---|---|---|---|---|---|---|---|---|---|
| 1 | 03/05 | 00:00 | 25 | 18 | 76 | 29.91 | NNE | 1 | 0.00 |
| 2 | 03/04 | 23:00 | 27 | 18 | 71 | 29.91 | N | 0 | 0.00 |
| 3 | 03/04 | 22:00 | 29 | 19 | 68 | 29.92 | N | 2 | 0.00 |
| 4 | 03/04 | 21:00 | 29 | 20 | 70 | 29.92 | SSE | 1 | 0.00 |
| 5 | 03/04 | 20:00 | 30 | 19 | 64 | 29.91 | SSE | 2 | 0.00 |
| 6 | 03/04 | 19:00 | 31 | 17 | 56 | 29.92 | WSW | 1 | 0.00 |
| 7 | 03/04 | 18:00 | 33 | 16 | 51 | 29.91 | S | 3 | 0.00 |
| 8 | 03/04 | 17:00 | 34 | 16 | 48 | 29.92 | SSW | 3 | 0.00 |
| 9 | 03/04 | 16:00 | 34 | 15 | 47 | 29.92 | SW | 6 | 0.00 |
| 10 | 03/04 | 15:00 | 34 | 17 | 50 | 29.93 | WSW | 7 | 0.00 |
| 11 | 03/04 | 14:00 | 33 | 15 | 49 | 29.96 | SSW | 5 | 0.00 |
| 12 | miss | miss | miss | miss | miss | miss | miss | miss | |
| 13 | 03/04 | 13:47 | 33 | 16 | 51 | 29.96 | WSW | 5 | 0.00 |
| 14 | miss | miss | miss | miss | miss | miss | miss | miss | |
| 15 | 03/04 | 13:45 | 33 | 16 | 50 | 29.97 | WSW | 6 | 0.00 |
| 16 | miss | miss | miss | miss | miss | miss | miss | miss | |
| 17 | 03/04 | 13:43 | 33 | 16 | 50 | 29.97 | SSW | 9 | 0.00 |
| 18 | miss | miss | miss | miss | miss | miss | miss | miss | |
| 19 | 03/04 | 13:41 | 33 | 16 | 51 | 29.97 | W | 7 | 0.00 |
| 20 | miss | miss | miss | miss | miss | miss | miss | miss | |
| 21 | 03/04 | 13:39 | 33 | 17 | 52 | 29.97 | WNW | 5 | 0.00 |
| 22 | miss | miss | miss | miss | miss | miss | miss | miss | |
| 23 | 03/04 | 13:37 | 33 | 17 | 53 | 29.97 | W | 9 | 0.00 |
| 24 | miss | miss | miss | miss | miss | miss | miss | miss | |
| 25 | 03/04 | 13:35 | 32 | 16 | 52 | 29.97 | W | 4 | 0.00 |
| 26 | miss | miss | miss | miss | miss | miss | miss | miss | |
| 27 | 03/04 | 13:35 | 32 | 16 | 52 | 29.97 | W | 4 | 0.00 |
| 28 | miss | miss | miss | miss | miss | miss | miss | miss | |
| 29 | 03/04 | 13:35 | 32 | 16 | 52 | 29.97 | W | 4 | 0.00 |
| 30 | miss | miss | miss | miss | miss | miss | miss | miss | |
| 31 | 03/04 | 13:35 | 32 | 16 | 52 | 29.97 | W | 4 | 0.00 |
| 32 | miss | miss | miss | miss | miss | miss | miss | miss | |
| 33 | 03/04 | 13:35 | 32 | 16 | 52 | 29.97 | W | 4 | 0.00 |
| 34 | miss | miss | miss | miss | miss | miss | miss | miss | |
| 35 | 03/04 | 13:35 | 32 | 16 | 52 | 29.97 | W | 4 | 0.00 |
| 36 | 03/04 | 13:00 | 32 | 17 | 55 | 29.99 | SSW | 4 | 0.00 |
| 37 | 03/04 | 12:00 | 30 | 15 | 55 | 30.03 | SW | 9 | 0.00 |
| 38 | 03/04 | 11:00 | 29 | 16 | 59 | 30.06 | SW | 5 | 0.00 |
| 39 | 03/04 | 10:00 | 26 | 14 | 61 | 30.07 | SW | 9 | 0.00 |
| 40 | 03/04 | 09:00 | 23 | 12 | 65 | 30.08 | WSW | 5 | 0.00 |
| 41 | 03/04 | 08:00 | 20 | 12 | 71 | 30.08 | SSW | 3 | 0.00 |
| 42 | 03/04 | 07:00 | 16 | 9 | 76 | 30.06 | W | 2 | 0.00 |
| 43 | 03/04 | 06:00 | 17 | 9 | 73 | 30.05 | WSW | 2 | 0.00 |
| 44 | 03/04 | 05:00 | 19 | 10 | 70 | 30.04 | W | 5 | 0.00 |
| 45 | 03/04 | 04:00 | 19 | 10 | 69 | 30.02 | W | 5 | 0.00 |
| 46 | 03/04 | 03:00 | 19 | 11 | 72 | 30.01 | WSW | 4 | 0.00 |
| 47 | 03/04 | 02:00 | 19 | 10 | 69 | 30.02 | WSW | 2 | 0.00 |
| 48 | 03/04 | 01:00 | 21 | 11 | 66 | 30.02 | WNW | 2 | 0.00 |
| 49 | 03/04 | 00:00 | 22 | 11 | 64 | 30.01 | WSW | 3 | 0.00 |
| 50 | 03/03 | 23:00 | 23 | 12 | 63 | 30.01 | SSW | 4 | 0.00 |
| 51 | 03/03 | 22:00 | 24 | 12 | 61 | 30.01 | W | 7 | 0.00 |
| 52 | 03/03 | 21:00 | 25 | 13 | 60 | 29.99 | SW | 5 | 0.00 |
| 53 | 03/03 | 20:00 | 25 | 12 | 59 | 29.98 | WSW | 7 | 0.00 |
| 54 | 03/03 | 19:00 | 27 | 13 | 56 | 29.96 | W | 8 | 0.00 |
| 55 | 03/03 | 18:00 | 28 | 13 | 55 | 29.93 | SW | 12 | 0.00 |
| 56 | 03/03 | 17:00 | 30 | 14 | 52 | 29.90 | W | 9 | 0.00 |
| 57 | 03/03 | 16:00 | 31 | 14 | 51 | 29.89 | W | 6 | 0.00 |
| 58 | 03/03 | 15:00 | 32 | 16 | 52 | 29.90 | SW | 6 | 0.00 |
| 59 | 03/03 | 14:00 | 30 | 14 | 53 | 29.91 | NW | 9 | 0.00 |
| 60 | 03/03 | 13:00 | 29 | 15 | 56 | 29.92 | WNW | 5 | 0.00 |
| 61 | 03/03 | 12:00 | 28 | 14 | 57 | 29.94 | WNW | 7 | 0.00 |
| 62 | 03/03 | 11:00 | 27 | 14 | 58 | 29.94 | NW | 9 | 0.00 |
| 63 | 03/03 | 10:00 | 25 | 13 | 61 | 29.94 | NW | 14 | 0.00 |
| 64 | 03/03 | 09:00 | 22 | 11 | 64 | 29.93 | NW | 7 | 0.00 |
| 65 | 03/03 | 08:00 | 20 | 10 | 66 | 29.93 | WNW | 10 | 0.00 |
| 66 | 03/03 | 07:00 | 18 | 9 | 69 | 29.92 | W | 3 | 0.00 |
| 67 | 03/03 | 06:00 | 19 | 10 | 68 | 29.91 | WNW | 11 | 0.00 |
| 68 | 03/03 | 05:00 | 19 | 9 | 67 | 29.89 | WNW | 14 | 0.00 |
| 69 | 03/03 | 04:00 | 20 | 11 | 69 | 29.87 | NW | 7 | 0.00 |
| 70 | 03/03 | 03:00 | 20 | 11 | 69 | 29.86 | WNW | 10 | 0.00 |
| 71 | 03/03 | 02:00 | 22 | 12 | 67 | 29.85 | NW | 8 | 0.00 |
| 72 | 03/03 | 01:00 | 22 | 13 | 68 | 29.84 | W | 10 | 0.00 |
| 73 | 03/03 | 00:00 | 23 | 15 | 74 | 29.83 | WNW | 16 | 0.00 |